Time;durP1;ratioP1;P1;durP2;ratioP2;P2;SDS_P1;SDS_P2;PMS_P1;PMS_P2;Temp;Humidity;BMP_temperature;BMP_pressure;BME280_temperature;BME280_humidity;BME280_pressure;Samples;Min_cycle;Max_cycle;Signal;HPM_P1;HPM_P2
2022/06/20 00:02:03;;;;;;;5.80;2.23;;;;;;;;;;5055529;28;20183;-66
2022/06/20 00:04:29;;;;;;;7.07;2.67;;;;;;;;;;5054933;28;20201;-67
2022/06/20 00:06:55;;;;;;;3.80;2.67;;;;;;;;;;5037270;28;20189;-65
2022/06/20 00:09:21;;;;;;;4.23;2.77;;;;;;;;;;5037235;28;20180;-66
2022/06/20 00:11:48;;;;;;;5.73;2.40;;;;;;;;;;5054877;28;20178;-66
2022/06/20 00:14:16;;;;;;;5.47;2.70;;;;;;;;;;5054870;28;20175;-66
2022/06/20 00:16:43;;;;;;;4.57;2.50;;;;;;;;;;5054813;28;20210;-65
2022/06/20 00:19:12;;;;;;;5.70;2.50;;;;;;;;;;5037024;28;20601;-66
2022/06/20 00:21:39;;;;;;;3.57;2.60;;;;;;;;;;5055005;28;20643;-67
2022/06/20 00:24:05;;;;;;;5.03;2.43;;;;;;;;;;5054643;28;20218;-66
2022/06/20 00:26:31;;;;;;;2.87;2.40;;;;;;;;;;5054829;28;20700;-67
2022/06/20 00:28:57;;;;;;;3.70;2.40;;;;;;;;;;5037041;28;20652;-67
2022/06/20 00:31:23;;;;;;;3.67;2.17;;;;;;;;;;5054700;28;20257;-66
2022/06/20 00:33:50;;;;;;;3.00;2.40;;;;;;;;;;5054535;28;20665;-66
2022/06/20 00:36:15;;;;;;;6.87;2.70;;;;;;;;;;5054386;28;20206;-66
2022/06/20 00:38:43;;;;;;;2.70;2.33;;;;;;;;;;5036589;28;20188;-66
2022/06/20 00:41:15;;;;;;;6.53;2.27;;;;;;;;;;5036519;28;20182;-66
2022/06/20 00:43:48;;;;;;;6.20;2.30;;;;;;;;;;5054500;28;20182;-64
2022/06/20 00:46:18;;;;;;;3.07;2.00;;;;;;;;;;5054229;28;20233;-65
2022/06/20 00:48:49;;;;;;;5.30;2.57;;;;;;;;;;5054483;28;20700;-66
2022/06/20 00:51:35;;;;;;;3.67;2.23;;;;;;;;;;5036217;28;20178;-66
2022/06/20 00:54:11;;;;;;;3.40;2.33;;;;;;;;;;5034466;28;20191;-66
2022/06/20 00:56:45;;;;;;;4.27;2.13;;;;;;;;;;5054097;28;20677;-66
2022/06/20 00:59:14;;;;;;;6.03;2.30;;;;;;;;;;5055002;28;20578;-66
2022/06/20 01:01:41;;;;;;;5.03;2.47;;;;;;;;;;5054514;28;20178;-66
2022/06/20 01:04:09;;;;;;;3.60;2.10;;;;;;;;;;5053857;28;20179;-66
2022/06/20 01:06:38;;;;;;;4.23;2.40;;;;;;;;;;5053879;28;20194;-66
2022/06/20 01:09:08;;;;;;;3.53;2.10;;;;;;;;;;5053776;28;20225;-67
2022/06/20 01:11:39;;;;;;;4.37;2.47;;;;;;;;;;5036042;28;20265;-66
2022/06/20 01:14:22;;;;;;;4.30;2.47;;;;;;;;;;5036048;28;20646;-67
2022/06/20 01:16:48;;;;;;;6.63;2.90;;;;;;;;;;5054230;28;20182;-67
2022/06/20 01:19:22;;;;;;;4.30;2.60;;;;;;;;;;5054000;28;20698;-68
2022/06/20 01:21:48;;;;;;;3.73;2.57;;;;;;;;;;5054097;28;20172;-68
2022/06/20 01:24:37;;;;;;;4.23;2.67;;;;;;;;;;5035743;28;20657;-68
2022/06/20 01:27:12;;;;;;;4.83;2.57;;;;;;;;;;5054098;28;20182;-67
2022/06/20 01:29:38;;;;;;;5.07;2.70;;;;;;;;;;5054017;28;20174;-67
2022/06/20 01:32:05;;;;;;;7.20;2.90;;;;;;;;;;5053786;28;20197;-68
2022/06/20 01:34:32;;;;;;;3.57;2.27;;;;;;;;;;5053813;28;20721;-67
2022/06/20 01:39:45;;;;;;;5.20;2.60;;;;;;;;;;5054126;28;20324;-69
2022/06/20 01:42:18;;;;;;;3.50;2.50;;;;;;;;;;5053379;28;20665;-68
2022/06/20 01:44:46;;;;;;;5.03;2.57;;;;;;;;;;5035514;28;20217;-67
2022/06/20 01:47:12;;;;;;;3.23;2.90;;;;;;;;;;5053420;28;20264;-69
2022/06/20 01:49:38;;;;;;;5.70;2.70;;;;;;;;;;5035674;28;20184;-70
2022/06/20 01:52:12;;;;;;;3.27;2.70;;;;;;;;;;5053709;28;20175;-68
2022/06/20 01:54:45;;;;;;;7.37;2.70;;;;;;;;;;5053624;28;20764;-67
2022/06/20 01:57:12;;;;;;;5.30;2.77;;;;;;;;;;5035633;28;20170;-67
2022/06/20 01:59:43;;;;;;;3.37;2.87;;;;;;;;;;5053616;28;20634;-67
2022/06/20 02:02:09;;;;;;;4.70;2.90;;;;;;;;;;5053430;28;20205;-67
2022/06/20 02:04:37;;;;;;;6.40;3.43;;;;;;;;;;5053173;28;20578;-67
2022/06/20 02:07:05;;;;;;;6.00;2.80;;;;;;;;;;5053397;28;20253;-66
2022/06/20 02:09:31;;;;;;;5.50;3.17;;;;;;;;;;5053539;28;20182;-67
2022/06/20 02:11:58;;;;;;;5.43;3.33;;;;;;;;;;5053413;28;20189;-67
2022/06/20 02:14:29;;;;;;;6.13;2.93;;;;;;;;;;5035459;28;20202;-66
2022/06/20 02:16:57;;;;;;;4.00;2.90;;;;;;;;;;5035743;28;20174;-67
2022/06/20 02:19:26;;;;;;;6.40;3.13;;;;;;;;;;5036269;28;20175;-68
2022/06/20 02:21:55;;;;;;;8.60;3.13;;;;;;;;;;5057385;28;20192;-67
2022/06/20 02:24:23;;;;;;;5.33;3.07;;;;;;;;;;5039285;28;20328;-68
2022/06/20 02:26:51;;;;;;;5.10;2.90;;;;;;;;;;5057163;28;20300;-67
2022/06/20 02:29:22;;;;;;;6.00;3.70;;;;;;;;;;5039455;28;20232;-67
2022/06/20 02:31:51;;;;;;;6.10;3.70;;;;;;;;;;5057130;28;20631;-67
2022/06/20 02:34:17;;;;;;;5.47;3.17;;;;;;;;;;5038940;28;20186;-67
2022/06/20 02:36:44;;;;;;;4.80;3.53;;;;;;;;;;5057494;28;20545;-66
2022/06/20 02:39:10;;;;;;;5.93;3.70;;;;;;;;;;5039161;28;20206;-65
2022/06/20 02:41:37;;;;;;;4.10;3.50;;;;;;;;;;5057200;28;20182;-67
2022/06/20 02:44:08;;;;;;;4.87;2.93;;;;;;;;;;5056555;28;20179;-67
2022/06/20 02:46:34;;;;;;;4.93;3.00;;;;;;;;;;5056518;28;20198;-67
2022/06/20 02:49:02;;;;;;;5.17;2.50;;;;;;;;;;5038785;28;20708;-66
2022/06/20 02:51:36;;;;;;;5.53;2.90;;;;;;;;;;5056761;28;20202;-66
2022/06/20 02:54:03;;;;;;;6.83;3.37;;;;;;;;;;5056813;28;20615;-66
2022/06/20 02:56:32;;;;;;;5.23;3.33;;;;;;;;;;5056374;28;20178;-66
2022/06/20 02:59:00;;;;;;;5.23;3.17;;;;;;;;;;5038409;28;20208;-66
2022/06/20 03:01:26;;;;;;;6.17;3.37;;;;;;;;;;5056445;28;20266;-66
2022/06/20 03:03:54;;;;;;;5.93;3.20;;;;;;;;;;5056358;28;20206;-66
2022/06/20 03:06:25;;;;;;;7.47;3.03;;;;;;;;;;5056151;28;20249;-66
2022/06/20 03:08:52;;;;;;;7.13;2.97;;;;;;;;;;5056563;28;20186;-66
2022/06/20 03:11:18;;;;;;;8.10;3.20;;;;;;;;;;5038292;28;20236;-66
2022/06/20 03:13:44;;;;;;;6.37;3.03;;;;;;;;;;5056417;28;20232;-66
2022/06/20 03:16:10;;;;;;;7.60;2.90;;;;;;;;;;5056211;28;20198;-66
2022/06/20 03:18:44;;;;;;;9.00;2.87;;;;;;;;;;5056029;28;20178;-66
2022/06/20 03:21:11;;;;;;;5.20;3.27;;;;;;;;;;5056019;28;20170;-66
2022/06/20 03:23:37;;;;;;;10.10;3.20;;;;;;;;;;5038144;28;20182;-66
2022/06/20 03:26:04;;;;;;;7.97;2.70;;;;;;;;;;5055903;28;20202;-67
2022/06/20 03:28:31;;;;;;;7.77;3.20;;;;;;;;;;5056021;28;20175;-66
2022/06/20 03:30:58;;;;;;;10.87;3.17;;;;;;;;;;5055706;28;20175;-66
2022/06/20 03:33:25;;;;;;;7.80;3.07;;;;;;;;;;5037806;28;20265;-66
2022/06/20 03:35:55;;;;;;;11.70;3.10;;;;;;;;;;5055699;28;20218;-66
2022/06/20 03:38:21;;;;;;;7.30;2.70;;;;;;;;;;5055525;28;20265;-66
2022/06/20 03:40:47;;;;;;;13.03;3.50;;;;;;;;;;5038348;28;20797;-65
2022/06/20 03:43:14;;;;;;;6.20;3.20;;;;;;;;;;5038068;28;20669;-65
2022/06/20 03:45:42;;;;;;;7.87;3.53;;;;;;;;;;5057075;28;20256;-66
2022/06/20 03:48:10;;;;;;;12.03;2.97;;;;;;;;;;5059266;28;20236;-65
2022/06/20 03:50:38;;;;;;;9.07;3.60;;;;;;;;;;5041913;28;20178;-65
2022/06/20 03:53:11;;;;;;;8.37;3.50;;;;;;;;;;5058272;28;20704;-66
2022/06/20 03:55:40;;;;;;;6.07;2.97;;;;;;;;;;5058115;28;20221;-66
2022/06/20 03:58:18;;;;;;;6.63;2.93;;;;;;;;;;5039778;28;20186;-65
2022/06/20 04:00:51;;;;;;;6.53;3.73;;;;;;;;;;5055448;28;20639;-66
2022/06/20 04:03:43;;;;;;;7.77;3.63;;;;;;;;;;5056198;28;20210;-66
2022/06/20 04:06:13;;;;;;;8.60;2.87;;;;;;;;;;5050173;28;20280;-66
2022/06/20 04:11:33;;;;;;;8.00;2.17;;;;;;;;;;5055714;28;20661;-66
2022/06/20 04:14:17;;;;;;;3.03;2.10;;;;;;;;;;5037486;28;20202;-65
2022/06/20 04:16:46;;;;;;;6.23;2.47;;;;;;;;;;5055397;28;20240;-65
2022/06/20 04:19:16;;;;;;;5.33;2.70;;;;;;;;;;5038658;28;20206;-66
2022/06/20 04:21:48;;;;;;;5.60;2.53;;;;;;;;;;5038503;28;20182;-65
2022/06/20 04:24:14;;;;;;;6.57;2.57;;;;;;;;;;5056747;28;20583;-66
2022/06/20 04:26:43;;;;;;;7.67;2.30;;;;;;;;;;5056474;28;20284;-66
2022/06/20 04:29:12;;;;;;;4.00;2.20;;;;;;;;;;5055734;28;20288;-66
2022/06/20 04:31:41;;;;;;;4.40;2.47;;;;;;;;;;5037514;28;20175;-66
2022/06/20 04:34:13;;;;;;;6.97;2.30;;;;;;;;;;5036983;28;20178;-65
2022/06/20 04:36:44;;;;;;;3.90;1.87;;;;;;;;;;5036669;28;20190;-66
2022/06/20 04:39:22;;;;;;;5.57;2.50;;;;;;;;;;5054539;28;20251;-66
2022/06/20 04:41:58;;;;;;;8.10;2.77;;;;;;;;;;5054209;28;20170;-66
2022/06/20 04:44:37;;;;;;;5.30;2.47;;;;;;;;;;5036676;28;20198;-66
2022/06/20 04:47:02;;;;;;;5.40;2.53;;;;;;;;;;5036851;28;20194;-66
2022/06/20 04:49:28;;;;;;;7.47;2.40;;;;;;;;;;5036589;28;20189;-66
2022/06/20 04:51:55;;;;;;;5.57;2.67;;;;;;;;;;5054167;28;20174;-66
2022/06/20 04:54:22;;;;;;;4.73;2.53;;;;;;;;;;5054267;28;20174;-66
2022/06/20 04:56:49;;;;;;;6.23;2.27;;;;;;;;;;5036489;28;20193;-66
2022/06/20 04:59:20;;;;;;;7.10;2.70;;;;;;;;;;5036320;28;20209;-66
2022/06/20 05:01:47;;;;;;;4.57;2.37;;;;;;;;;;5036315;28;20212;-66
2022/06/20 05:04:23;;;;;;;7.77;2.80;;;;;;;;;;5054174;28;20181;-68
2022/06/20 05:06:49;;;;;;;6.10;2.27;;;;;;;;;;5054074;28;20221;-66
2022/06/20 05:09:17;;;;;;;2.53;2.33;;;;;;;;;;5054654;28;20181;-66
2022/06/20 05:11:46;;;;;;;6.03;2.93;;;;;;;;;;5054158;28;20175;-66
2022/06/20 05:14:22;;;;;;;8.07;2.83;;;;;;;;;;5036002;28;20546;-66
2022/06/20 05:16:50;;;;;;;11.67;3.20;;;;;;;;;;5054168;28;20210;-65
2022/06/20 05:19:18;;;;;;;9.33;2.60;;;;;;;;;;5054204;28;20193;-66
2022/06/20 05:21:46;;;;;;;7.97;2.47;;;;;;;;;;5035984;28;20254;-66
2022/06/20 05:24:19;;;;;;;6.03;2.37;;;;;;;;;;5035605;28;20622;-66
2022/06/20 05:26:46;;;;;;;6.10;2.07;;;;;;;;;;5035524;28;20205;-66
2022/06/20 05:29:33;;;;;;;11.77;2.43;;;;;;;;;;5053834;28;20186;-66
2022/06/20 05:32:02;;;;;;;7.53;2.53;;;;;;;;;;5035747;28;20189;-67
2022/06/20 05:34:47;;;;;;;8.80;2.50;;;;;;;;;;5053789;28;20193;-64
2022/06/20 05:37:20;;;;;;;7.47;2.63;;;;;;;;;;5053541;28;20170;-66
2022/06/20 05:39:49;;;;;;;7.03;2.50;;;;;;;;;;5053656;28;20658;-66
2022/06/20 05:42:16;;;;;;;4.63;2.50;;;;;;;;;;5053590;28;20209;-66
2022/06/20 05:44:42;;;;;;;4.63;1.90;;;;;;;;;;5035306;28;20198;-66
2022/06/20 05:47:20;;;;;;;7.70;2.10;;;;;;;;;;5053974;28;20171;-66
2022/06/20 05:49:58;;;;;;;7.70;2.50;;;;;;;;;;5053308;28;20206;-66
2022/06/20 05:52:26;;;;;;;10.10;2.40;;;;;;;;;;5053221;28;20203;-68
2022/06/20 05:54:54;;;;;;;5.20;2.00;;;;;;;;;;5054245;28;20202;-68
2022/06/20 05:57:22;;;;;;;7.57;2.40;;;;;;;;;;5054987;28;20548;-66
2022/06/20 05:59:54;;;;;;;9.90;2.60;;;;;;;;;;5053523;28;20189;-67
2022/06/20 06:02:25;;;;;;;7.17;2.23;;;;;;;;;;5035363;28;20222;-66
2022/06/20 06:04:56;;;;;;;3.30;1.80;;;;;;;;;;5053115;28;20205;-67
2022/06/20 06:07:26;;;;;;;9.07;2.40;;;;;;;;;;5053163;28;20161;-67
2022/06/20 06:10:00;;;;;;;4.13;2.07;;;;;;;;;;5035461;28;20174;-66
2022/06/20 06:12:46;;;;;;;5.83;2.37;;;;;;;;;;5053333;28;20237;-67
2022/06/20 06:15:17;;;;;;;5.40;2.37;;;;;;;;;;5035113;28;20242;-66
2022/06/20 06:17:49;;;;;;;3.80;1.87;;;;;;;;;;5035666;28;20190;-66
2022/06/20 06:20:23;;;;;;;4.20;1.70;;;;;;;;;;5053987;28;20274;-65
2022/06/20 06:22:51;;;;;;;5.77;2.00;;;;;;;;;;5053189;28;20181;-65
2022/06/20 06:25:27;;;;;;;4.63;2.23;;;;;;;;;;5053357;28;20217;-66
2022/06/20 06:27:55;;;;;;;5.07;2.43;;;;;;;;;;5035146;28;20178;-65
2022/06/20 06:30:24;;;;;;;5.87;2.20;;;;;;;;;;5052838;28;20674;-65
2022/06/20 06:32:53;;;;;;;3.93;2.10;;;;;;;;;;5035118;28;20178;-66
2022/06/20 06:35:22;;;;;;;3.77;1.70;;;;;;;;;;5035157;28;20236;-66
2022/06/20 06:37:53;;;;;;;3.33;2.00;;;;;;;;;;5052966;28;20646;-65
2022/06/20 06:40:39;;;;;;;5.77;1.80;;;;;;;;;;5053239;28;20220;-65
2022/06/20 06:43:20;;;;;;;5.30;1.87;;;;;;;;;;5032844;28;20202;-73
2022/06/20 06:45:46;;;;;;;2.90;1.93;;;;;;;;;;5053138;28;20229;-64
2022/06/20 06:48:24;;;;;;;3.13;1.60;;;;;;;;;;5053019;28;20202;-65
2022/06/20 06:50:54;;;;;;;3.23;1.63;;;;;;;;;;5053102;28;20273;-66
2022/06/20 06:53:20;;;;;;;6.10;1.80;;;;;;;;;;5052962;28;20175;-66
2022/06/20 06:55:53;;;;;;;6.83;2.07;;;;;;;;;;5052883;28;20285;-66
2022/06/20 06:58:38;;;;;;;4.20;1.87;;;;;;;;;;5052698;28;20532;-66
2022/06/20 07:01:13;;;;;;;6.20;1.57;;;;;;;;;;5070450;23;20283;-66
2022/06/20 07:03:43;;;;;;;6.00;1.80;;;;;;;;;;5054158;28;20713;-67
2022/06/20 07:06:16;;;;;;;4.20;1.80;;;;;;;;;;5037972;28;20282;-67
2022/06/20 07:08:48;;;;;;;6.83;2.20;;;;;;;;;;5039619;28;20627;-66
2022/06/20 07:11:21;;;;;;;9.03;2.10;;;;;;;;;;5039626;28;20662;-66
2022/06/20 07:13:52;;;;;;;4.87;1.97;;;;;;;;;;5057742;28;20205;-67
2022/06/20 07:16:21;;;;;;;5.27;2.10;;;;;;;;;;5039028;28;20235;-66
2022/06/20 07:18:49;;;;;;;4.27;2.23;;;;;;;;;;5057492;28;20175;-66
2022/06/20 07:21:17;;;;;;;5.40;2.20;;;;;;;;;;5057217;28;20210;-67
2022/06/20 07:23:45;;;;;;;4.40;2.30;;;;;;;;;;5039612;28;20209;-69
2022/06/20 07:26:11;;;;;;;8.00;2.07;;;;;;;;;;5040168;28;20359;-67
2022/06/20 07:28:41;;;;;;;4.87;2.00;;;;;;;;;;5057137;28;20528;-65
2022/06/20 07:31:17;;;;;;;5.67;2.17;;;;;;;;;;5038730;28;20198;-67
2022/06/20 07:33:47;;;;;;;7.13;2.63;;;;;;;;;;5056517;28;20201;-66
2022/06/20 07:36:15;;;;;;;4.67;2.00;;;;;;;;;;5038503;28;20182;-66
2022/06/20 07:38:44;;;;;;;3.70;2.20;;;;;;;;;;5056714;28;20184;-65
2022/06/20 07:41:13;;;;;;;2.07;1.60;;;;;;;;;;5038451;28;20631;-67
2022/06/20 07:43:42;;;;;;;4.83;2.10;;;;;;;;;;5056439;28;20182;-67
2022/06/20 07:46:12;;;;;;;5.47;2.50;;;;;;;;;;5056200;28;20210;-67
2022/06/20 07:48:39;;;;;;;3.43;1.90;;;;;;;;;;5056352;28;20262;-64
2022/06/20 07:51:08;;;;;;;3.73;1.70;;;;;;;;;;5038293;28;20648;-65
2022/06/20 07:53:36;;;;;;;5.27;1.80;;;;;;;;;;5055865;28;20183;-66
2022/06/20 07:56:06;;;;;;;6.70;2.33;;;;;;;;;;5038019;28;20597;-65
2022/06/20 07:58:34;;;;;;;4.07;1.50;;;;;;;;;;5056541;28;20179;-65
2022/06/20 08:01:04;;;;;;;4.33;2.23;;;;;;;;;;5056130;28;20241;-65
2022/06/20 08:03:41;;;;;;;5.50;1.90;;;;;;;;;;5056320;28;20178;-65
2022/06/20 08:06:21;;;;;;;5.17;1.97;;;;;;;;;;5055957;28;20194;-65
2022/06/20 08:08:50;;;;;;;7.73;1.77;;;;;;;;;;5056397;28;20162;-65
2022/06/20 08:14:07;;;;;;;3.47;1.70;;;;;;;;;;5056357;28;20174;-65
2022/06/20 08:16:34;;;;;;;3.47;1.63;;;;;;;;;;5056439;28;20174;-65
2022/06/20 08:19:00;;;;;;;5.10;1.40;;;;;;;;;;5038356;28;20638;-65
2022/06/20 08:21:30;;;;;;;2.57;1.40;;;;;;;;;;5056041;28;20210;-65
2022/06/20 08:24:00;;;;;;;1.70;1.30;;;;;;;;;;5056201;28;20174;-65
2022/06/20 08:26:31;;;;;;;2.53;1.40;;;;;;;;;;5037945;28;20248;-64
2022/06/20 08:28:58;;;;;;;5.60;1.63;;;;;;;;;;5056496;28;20165;-66
2022/06/20 08:31:34;;;;;;;3.30;1.40;;;;;;;;;;5055722;28;20194;-64
2022/06/20 08:34:12;;;;;;;5.60;1.90;;;;;;;;;;5055674;28;20170;-64
2022/06/20 08:36:46;;;;;;;5.50;1.70;;;;;;;;;;5038007;28;20596;-66
2022/06/20 08:39:20;;;;;;;4.20;1.87;;;;;;;;;;5055973;28;20173;-65
2022/06/20 08:41:52;;;;;;;5.23;1.80;;;;;;;;;;5037442;28;20201;-65
2022/06/20 08:44:31;;;;;;;3.13;1.63;;;;;;;;;;5037434;28;20182;-66
2022/06/20 08:47:06;;;;;;;6.23;1.83;;;;;;;;;;5055179;28;20197;-65
2022/06/20 08:49:51;;;;;;;3.03;1.83;;;;;;;;;;5054880;28;20540;-66
2022/06/20 08:52:35;;;;;;;5.43;1.50;;;;;;;;;;5054729;28;20193;-66
2022/06/20 08:55:07;;;;;;;3.83;1.83;;;;;;;;;;5055655;28;20195;-66
2022/06/20 08:57:33;;;;;;;3.87;1.87;;;;;;;;;;5055036;28;20183;-65
2022/06/20 09:00:25;;;;;;;4.73;2.13;;;;;;;;;;5054888;28;20188;-65
2022/06/20 09:02:54;;;;;;;3.33;1.70;;;;;;;;;;5033495;28;20194;-65
2022/06/20 09:05:30;;;;;;;2.57;1.73;;;;;;;;;;5054847;28;20565;-66
2022/06/20 09:08:04;;;;;;;3.53;1.70;;;;;;;;;;5054830;28;20626;-66
2022/06/20 09:10:36;;;;;;;3.33;1.60;;;;;;;;;;5054608;28;20162;-65
2022/06/20 09:13:01;;;;;;;4.40;1.80;;;;;;;;;;5055738;28;20163;-66
2022/06/20 09:15:38;;;;;;;4.00;1.77;;;;;;;;;;5036766;28;20212;-66
2022/06/20 09:18:19;;;;;;;2.57;1.40;;;;;;;;;;5037023;28;20236;-66
2022/06/20 09:20:51;;;;;;;3.77;1.73;;;;;;;;;;5037231;28;20207;-66
2022/06/20 09:23:34;;;;;;;2.20;1.43;;;;;;;;;;5057741;28;20236;-66
2022/06/20 09:26:13;;;;;;;3.30;1.87;;;;;;;;;;5058884;28;20658;-66
2022/06/20 09:28:44;;;;;;;4.23;2.20;;;;;;;;;;5059013;28;20166;-66
2022/06/20 09:31:19;;;;;;;4.20;1.50;;;;;;;;;;5055883;28;20195;-64
2022/06/20 09:33:57;;;;;;;2.27;1.80;;;;;;;;;;5054403;28;20209;-66
2022/06/20 09:36:42;;;;;;;2.77;1.60;;;;;;;;;;5036586;28;20178;-66
2022/06/20 09:39:26;;;;;;;4.33;2.17;;;;;;;;;;5054190;28;20182;-66
2022/06/20 09:41:55;;;;;;;4.23;2.07;;;;;;;;;;5036435;28;20228;-66
2022/06/20 09:44:21;;;;;;;3.20;1.90;;;;;;;;;;5036207;28;20638;-66
2022/06/20 09:46:56;;;;;;;2.13;1.63;;;;;;;;;;5053886;28;20247;-66
2022/06/20 09:49:40;;;;;;;2.37;1.87;;;;;;;;;;5054468;28;20521;-66
2022/06/20 09:52:29;;;;;;;3.80;1.67;;;;;;;;;;5054365;28;20277;-66
2022/06/20 09:55:03;;;;;;;2.90;1.40;;;;;;;;;;5040576;28;20204;-66
2022/06/20 09:57:35;;;;;;;4.27;1.90;;;;;;;;;;5053543;28;20170;-66
2022/06/20 10:00:15;;;;;;;2.90;1.87;;;;;;;;;;5053350;28;20178;-65
2022/06/20 10:02:41;;;;;;;2.83;1.77;;;;;;;;;;5053476;28;20305;-65
2022/06/20 10:05:10;;;;;;;5.93;1.60;;;;;;;;;;5053016;28;20206;-66
2022/06/20 10:07:57;;;;;;;2.97;1.97;;;;;;;;;;5035297;28;20269;-65
2022/06/20 10:10:29;;;;;;;3.17;1.83;;;;;;;;;;5053029;28;20163;-66
2022/06/20 10:12:59;;;;;;;2.00;1.87;;;;;;;;;;5053471;28;20167;-66
2022/06/20 10:15:43;;;;;;;3.43;1.80;;;;;;;;;;5052980;28;20527;-66
2022/06/20 10:18:09;;;;;;;3.23;1.60;;;;;;;;;;5053313;28;20627;-66
2022/06/20 10:20:46;;;;;;;4.40;1.67;;;;;;;;;;5035030;28;20265;-66
2022/06/20 10:23:12;;;;;;;4.30;2.00;;;;;;;;;;5053194;28;20220;-66
2022/06/20 10:25:47;;;;;;;8.53;2.03;;;;;;;;;;5052867;28;20203;-65
2022/06/20 10:28:36;;;;;;;4.03;1.90;;;;;;;;;;5053361;28;20521;-64
2022/06/20 10:31:08;;;;;;;5.23;1.97;;;;;;;;;;5053036;28;20256;-65
2022/06/20 10:33:51;;;;;;;3.13;1.97;;;;;;;;;;5053195;28;20171;-66
2022/06/20 10:36:17;;;;;;;4.53;1.90;;;;;;;;;;5034951;28;20185;-66
2022/06/20 10:38:51;;;;;;;2.83;1.80;;;;;;;;;;5053124;28;20183;-65
2022/06/20 10:41:21;;;;;;;2.33;1.90;;;;;;;;;;5055229;28;20198;-66
2022/06/20 10:43:47;;;;;;;2.43;1.87;;;;;;;;;;5056889;28;20178;-66
2022/06/20 10:46:19;;;;;;;4.90;1.70;;;;;;;;;;5057119;28;20202;-66
2022/06/20 10:48:45;;;;;;;3.23;1.80;;;;;;;;;;5039016;28;20186;-66
2022/06/20 10:51:30;;;;;;;2.77;1.63;;;;;;;;;;5056748;28;20202;-66
2022/06/20 10:54:03;;;;;;;4.03;2.00;;;;;;;;;;5056785;28;20179;-66
2022/06/20 10:56:32;;;;;;;3.23;2.03;;;;;;;;;;5057190;28;20507;-66
2022/06/20 10:59:06;;;;;;;2.33;1.93;;;;;;;;;;5038482;28;20638;-66
2022/06/20 11:01:38;;;;;;;3.10;2.20;;;;;;;;;;5056210;28;20213;-63
2022/06/20 11:04:16;;;;;;;4.83;2.10;;;;;;;;;;5056925;28;20167;-66
2022/06/20 11:06:48;;;;;;;3.73;1.90;;;;;;;;;;5056268;28;20676;-64
2022/06/20 11:09:23;;;;;;;5.93;2.10;;;;;;;;;;5056779;28;20213;-65
2022/06/20 11:12:02;;;;;;;3.67;2.03;;;;;;;;;;5056351;28;20213;-65
2022/06/20 11:14:28;;;;;;;2.93;2.13;;;;;;;;;;5056422;28;20227;-65
2022/06/20 11:17:00;;;;;;;5.80;2.33;;;;;;;;;;5056397;28;20642;-66
2022/06/20 11:19:35;;;;;;;1.93;1.70;;;;;;;;;;5056592;28;20174;-66
2022/06/20 11:22:31;;;;;;;3.17;2.07;;;;;;;;;;5056070;28;20198;-66
2022/06/20 11:25:07;;;;;;;2.97;1.97;;;;;;;;;;5021165;28;20274;-66
2022/06/20 11:27:41;;;;;;;2.37;1.67;;;;;;;;;;5055923;28;20170;-65
2022/06/20 11:30:16;;;;;;;3.10;2.00;;;;;;;;;;5055884;28;20163;-65
2022/06/20 11:33:01;;;;;;;5.80;2.10;;;;;;;;;;5055667;28;20571;-66
2022/06/20 11:35:43;;;;;;;2.90;2.20;;;;;;;;;;5055549;28;20179;-65
2022/06/20 11:38:22;;;;;;;3.87;2.13;;;;;;;;;;5055647;28;20651;-65
2022/06/20 11:40:57;;;;;;;2.90;1.80;;;;;;;;;;5055411;28;20198;-65
2022/06/20 11:43:35;;;;;;;2.90;1.90;;;;;;;;;;5055588;28;20174;-65
2022/06/20 11:46:01;;;;;;;4.37;2.07;;;;;;;;;;5037605;28;20266;-65
2022/06/20 11:48:39;;;;;;;2.37;1.87;;;;;;;;;;5055789;28;20221;-67
2022/06/20 11:51:08;;;;;;;4.43;2.43;;;;;;;;;;5054892;28;20198;-65
2022/06/20 11:53:40;;;;;;;4.83;2.10;;;;;;;;;;5055451;28;20209;-65
2022/06/20 11:56:19;;;;;;;3.37;2.10;;;;;;;;;;5037458;28;20179;-64
2022/06/20 11:58:57;;;;;;;2.40;1.60;;;;;;;;;;5055170;28;20163;-65
2022/06/20 12:01:27;;;;;;;3.97;2.33;;;;;;;;;;5037077;28;20213;-65
2022/06/20 12:04:19;;;;;;;3.33;1.93;;;;;;;;;;5055375;28;20175;-65
2022/06/20 12:06:53;;;;;;;4.40;2.17;;;;;;;;;;5017609;28;20734;-65
2022/06/20 12:09:30;;;;;;;4.77;2.07;;;;;;;;;;5055650;28;20181;-65
2022/06/20 12:12:07;;;;;;;3.90;2.13;;;;;;;;;;5055100;28;20198;-65
2022/06/20 12:14:38;;;;;;;3.70;2.50;;;;;;;;;;5054732;28;20163;-65
2022/06/20 12:17:17;;;;;;;4.87;2.40;;;;;;;;;;5055021;28;20170;-65
2022/06/20 12:25:43;;;;;;;3.17;2.40;;;;;;;;;;5055022;28;20233;-65
2022/06/20 12:28:18;;;;;;;3.77;2.27;;;;;;;;;;5037011;28;20179;-67
2022/06/20 12:30:44;;;;;;;7.77;2.63;;;;;;;;;;5036725;28;20221;-67
2022/06/20 12:33:11;;;;;;;4.80;3.00;;;;;;;;;;5054980;28;20201;-67
2022/06/20 12:35:40;;;;;;;5.43;2.33;;;;;;;;;;5054634;28;20184;-66
2022/06/20 12:38:25;;;;;;;3.10;2.10;;;;;;;;;;5054697;28;20259;-66
2022/06/20 12:40:54;;;;;;;4.03;2.67;;;;;;;;;;5036614;28;20706;-67
2022/06/20 12:43:27;;;;;;;2.57;2.07;;;;;;;;;;5055087;28;20184;-66
2022/06/20 12:45:59;;;;;;;4.07;2.27;;;;;;;;;;5036404;28;20194;-66
2022/06/20 12:48:33;;;;;;;3.77;1.93;;;;;;;;;;5054492;28;20360;-66
2022/06/20 12:51:18;;;;;;;6.37;2.53;;;;;;;;;;5054456;28;20277;-67
2022/06/20 12:53:44;;;;;;;5.67;2.30;;;;;;;;;;5054263;28;20177;-67
2022/06/20 12:56:13;;;;;;;4.33;2.30;;;;;;;;;;5054038;28;20266;-67
2022/06/20 12:58:47;;;;;;;3.87;2.00;;;;;;;;;;5054066;28;20178;-67
2022/06/20 13:01:36;;;;;;;5.13;2.20;;;;;;;;;;5053868;28;20305;-66
2022/06/20 13:04:11;;;;;;;3.47;2.00;;;;;;;;;;4999242;28;20248;-67
2022/06/20 13:06:36;;;;;;;5.73;2.80;;;;;;;;;;5035908;28;20272;-66
2022/06/20 13:09:12;;;;;;;3.90;2.23;;;;;;;;;;5035991;28;20634;-67
2022/06/20 13:11:43;;;;;;;4.47;2.23;;;;;;;;;;5053945;28;20198;-67
2022/06/20 13:14:19;;;;;;;5.30;2.10;;;;;;;;;;5054121;28;20300;-66
2022/06/20 13:17:12;;;;;;;3.37;1.80;;;;;;;;;;5054086;28;20174;-66
2022/06/20 13:19:56;;;;;;;4.43;2.40;;;;;;;;;;5054072;28;20167;-67
2022/06/20 13:22:25;;;;;;;3.67;2.10;;;;;;;;;;5054112;28;20206;-67
2022/06/20 13:25:04;;;;;;;5.03;2.43;;;;;;;;;;5053571;28;20182;-66
2022/06/20 13:27:33;;;;;;;6.73;2.50;;;;;;;;;;5035920;28;20247;-66
2022/06/20 13:30:17;;;;;;;3.67;2.27;;;;;;;;;;5053478;28;20182;-66
2022/06/20 13:33:09;;;;;;;4.80;2.27;;;;;;;;;;5053437;28;20262;-66
2022/06/20 13:35:35;;;;;;;4.40;2.13;;;;;;;;;;5035736;28;20181;-66
2022/06/20 13:38:07;;;;;;;4.40;2.03;;;;;;;;;;5053322;28;20522;-67
2022/06/20 13:40:39;;;;;;;3.37;2.43;;;;;;;;;;5053468;28;20186;-66
2022/06/20 13:43:14;;;;;;;3.13;1.90;;;;;;;;;;5053741;28;20190;-66
2022/06/20 13:45:56;;;;;;;3.77;2.13;;;;;;;;;;5054178;28;20674;-67
2022/06/20 13:48:34;;;;;;;6.03;2.27;;;;;;;;;;5053995;28;20185;-67
2022/06/20 13:51:21;;;;;;;3.03;2.00;;;;;;;;;;5053134;28;20235;-67
2022/06/20 13:53:53;;;;;;;3.37;2.10;;;;;;;;;;5053243;28;20170;-66
2022/06/20 13:56:24;;;;;;;3.38;2.22;;;;;;;;;;5035429;28;20104;-67
2022/06/20 13:58:57;;;;;;;2.80;2.30;;;;;;;;;;5067822;22;20163;-63
2022/06/20 14:01:31;;;;;;;2.23;1.80;;;;;;;;;;5053129;28;20194;-63
2022/06/20 14:03:58;;;;;;;4.15;2.22;;;;;;;;;;5052026;28;20453;-63
2022/06/20 14:06:26;;;;;;;5.43;2.45;;;;;;;;;;5033635;28;20833;-61
2022/06/20 14:08:54;;;;;;;4.13;2.10;;;;;;;;;;5051696;28;20386;-62
2022/06/20 14:11:25;;;;;;;2.80;1.75;;;;;;;;;;5051660;28;20378;-62
2022/06/20 14:13:52;;;;;;;2.37;1.70;;;;;;;;;;5035151;28;20182;-63
2022/06/20 14:16:21;;;;;;;3.90;1.83;;;;;;;;;;5057294;28;20265;-63
2022/06/20 14:18:52;;;;;;;2.33;1.63;;;;;;;;;;5057047;28;20217;-62
2022/06/20 14:21:19;;;;;;;2.17;1.63;;;;;;;;;;5039225;28;20212;-64
2022/06/20 14:23:48;;;;;;;3.03;1.93;;;;;;;;;;5057400;28;20182;-63
2022/06/20 14:26:34;;;;;;;2.88;1.90;;;;;;;;;;5055806;28;20409;-63
2022/06/20 14:29:02;;;;;;;3.70;2.00;;;;;;;;;;5055592;28;21001;-63
2022/06/20 14:31:31;;;;;;;2.80;1.70;;;;;;;;;;5057000;28;20163;-63
2022/06/20 14:34:01;;;;;;;4.87;2.03;;;;;;;;;;5057100;28;20323;-63
2022/06/20 14:36:27;;;;;;;3.63;1.73;;;;;;;;;;5056967;28;20839;-61
2022/06/20 14:39:11;;;;;;;3.77;1.87;;;;;;;;;;5038559;28;20230;-63
2022/06/20 14:41:58;;;;;;;3.43;1.57;;;;;;;;;;5056592;28;20674;-63
2022/06/20 14:44:36;;;;;;;5.53;1.90;;;;;;;;;;5019005;28;20194;-63
2022/06/20 14:47:08;;;;;;;1.93;1.57;;;;;;;;;;5056382;28;20240;-63
2022/06/20 14:49:38;;;;;;;2.57;1.63;;;;;;;;;;5038591;28;20216;-63
2022/06/20 14:52:27;;;;;;;4.13;1.90;;;;;;;;;;5056742;28;20257;-62
2022/06/20 14:54:56;;;;;;;3.57;2.00;;;;;;;;;;5041397;28;20198;-63
2022/06/20 14:57:33;;;;;;;2.63;1.90;;;;;;;;;;5056435;28;20551;-62
2022/06/20 15:00:20;;;;;;;4.93;1.93;;;;;;;;;;5056105;28;20709;-63
2022/06/20 15:03:18;;;;;;;2.80;2.00;;;;;;;;;;5036178;28;20190;-64
2022/06/20 15:05:54;;;;;;;2.87;2.13;;;;;;;;;;4974956;28;20231;-64
2022/06/20 15:08:30;;;;;;;2.60;1.70;;;;;;;;;;5038259;28;20185;-63
2022/06/20 15:10:58;;;;;;;4.70;2.00;;;;;;;;;;5056129;28;20170;-63
2022/06/20 15:13:30;;;;;;;2.60;1.80;;;;;;;;;;5056537;28;20177;-64
2022/06/20 15:15:59;;;;;;;3.10;1.90;;;;;;;;;;5056020;28;20182;-63
2022/06/20 15:18:28;;;;;;;4.13;1.77;;;;;;;;;;5038049;28;20208;-63
2022/06/20 15:21:05;;;;;;;2.20;1.97;;;;;;;;;;5056290;28;20249;-63
2022/06/20 15:23:48;;;;;;;2.20;1.63;;;;;;;;;;5056108;28;20174;-63
2022/06/20 15:26:29;;;;;;;4.73;1.60;;;;;;;;;;5055322;28;20187;-63
2022/06/20 15:29:02;;;;;;;2.93;1.67;;;;;;;;;;5056062;28;20336;-63